Time;durP1;ratioP1;P1;durP2;ratioP2;P2;SDS_P1;SDS_P2;PMS_P1;PMS_P2;Temp;Humidity;BMP_temperature;BMP_pressure;BME280_temperature;BME280_humidity;BME280_pressure;Samples;Min_cycle;Max_cycle;Signal;HPM_P1;HPM_P2
2023/11/19 00:01:23;;;;;;;2.17;1.10;;;5.40;99.90;;;;;;4859239;29;20303;-90
2023/11/19 00:03:50;;;;;;;1.40;0.97;;;5.40;99.90;;;;;;4846504;29;20284;-93
2023/11/19 00:06:16;;;;;;;4.43;1.17;;;5.40;99.90;;;;;;4841347;29;20232;-92
2023/11/19 00:08:43;;;;;;;1.07;0.97;;;5.40;99.90;;;;;;4841861;29;20320;-91
2023/11/19 00:11:09;;;;;;;1.17;0.90;;;5.40;99.90;;;;;;4841684;29;20205;-94
2023/11/19 00:13:35;;;;;;;1.00;0.90;;;5.40;99.90;;;;;;4841820;29;20556;-93
2023/11/19 00:16:00;;;;;;;1.50;0.87;;;5.40;99.90;;;;;;4841546;29;20649;-92
2023/11/19 00:18:26;;;;;;;1.20;1.00;;;5.40;99.90;;;;;;4841497;29;20706;-92
2023/11/19 00:20:52;;;;;;;1.00;0.90;;;5.40;99.90;;;;;;4841125;29;20208;-92
2023/11/19 00:23:18;;;;;;;3.13;0.90;;;5.40;99.90;;;;;;4841309;29;20940;-92
2023/11/19 00:25:44;;;;;;;2.13;1.23;;;5.40;99.90;;;;;;4842196;29;20204;-94
2023/11/19 00:28:10;;;;;;;3.00;1.00;;;5.50;99.90;;;;;;4841519;29;20200;-91
2023/11/19 00:30:35;;;;;;;1.70;1.10;;;5.50;99.90;;;;;;4845407;29;20581;-91
2023/11/19 00:33:01;;;;;;;1.03;0.93;;;5.50;99.90;;;;;;4859684;29;20198;-92
2023/11/19 00:35:27;;;;;;;1.00;0.90;;;5.50;99.90;;;;;;5235160;23;20240;-82
2023/11/19 00:37:54;;;;;;;0.97;0.93;;;5.50;99.90;;;;;;4872474;29;20270;-81
2023/11/19 00:40:22;;;;;;;1.03;0.93;;;5.50;99.90;;;;;;4878919;29;20191;-80
2023/11/19 00:42:48;;;;;;;2.10;1.00;;;5.50;99.90;;;;;;4873070;29;20335;-81
2023/11/19 00:45:14;;;;;;;1.10;1.00;;;5.50;99.90;;;;;;4877811;29;20282;-81
2023/11/19 00:47:40;;;;;;;1.00;0.80;;;5.50;99.90;;;;;;4879333;29;20196;-80
2023/11/19 00:50:09;;;;;;;1.20;1.10;;;5.50;99.90;;;;;;4878266;29;20223;-80
2023/11/19 00:52:35;;;;;;;3.83;0.90;;;5.50;99.90;;;;;;4878635;29;20252;-80
2023/11/19 00:55:01;;;;;;;1.53;0.97;;;5.50;99.90;;;;;;4878573;29;20204;-81
2023/11/19 00:57:27;;;;;;;2.60;1.00;;;5.50;99.90;;;;;;4878680;29;20638;-83
2023/11/19 00:59:52;;;;;;;0.97;0.90;;;5.50;99.90;;;;;;4873873;29;20720;-80
2023/11/19 01:02:18;;;;;;;3.57;1.10;;;5.50;99.90;;;;;;4878549;29;20541;-80
2023/11/19 01:04:44;;;;;;;2.33;1.00;;;5.60;99.90;;;;;;4878564;29;20554;-80
2023/11/19 01:07:12;;;;;;;1.33;0.90;;;5.50;99.90;;;;;;4878333;29;20594;-83
2023/11/19 01:09:38;;;;;;;1.40;0.90;;;5.50;99.90;;;;;;4879641;29;20212;-82
2023/11/19 01:12:04;;;;;;;0.70;0.60;;;5.50;99.90;;;;;;4878560;29;20294;-83
2023/11/19 01:14:31;;;;;;;1.00;0.70;;;5.50;99.90;;;;;;4879525;29;20191;-83
2023/11/19 01:17:01;;;;;;;1.10;1.00;;;5.50;99.90;;;;;;4872425;29;20192;-81
2023/11/19 01:19:28;;;;;;;2.23;0.80;;;5.60;99.90;;;;;;4879060;29;20196;-82
2023/11/19 01:21:54;;;;;;;0.77;0.60;;;5.60;99.90;;;;;;4878070;29;20188;-81
2023/11/19 01:24:20;;;;;;;0.80;0.70;;;5.60;99.90;;;;;;4878154;29;20203;-80
2023/11/19 01:26:46;;;;;;;0.80;0.80;;;5.60;99.90;;;;;;4878013;29;20219;-80
2023/11/19 01:29:16;;;;;;;0.90;0.77;;;5.60;99.90;;;;;;4875568;29;20211;-80
2023/11/19 01:31:42;;;;;;;1.17;0.60;;;5.60;99.90;;;;;;4877960;29;20188;-81
2023/11/19 01:34:08;;;;;;;0.70;0.60;;;5.60;99.90;;;;;;4877902;29;20199;-83
2023/11/19 01:36:35;;;;;;;0.80;0.60;;;5.70;99.90;;;;;;4869981;29;20714;-84
2023/11/19 01:39:01;;;;;;;1.00;0.80;;;5.70;99.90;;;;;;4878075;29;20203;-82
2023/11/19 01:41:26;;;;;;;1.33;0.60;;;5.70;99.90;;;;;;4877265;29;20192;-82
2023/11/19 01:43:52;;;;;;;0.47;0.47;;;5.70;99.90;;;;;;4878902;29;20194;-83
2023/11/19 01:46:18;;;;;;;0.93;0.63;;;5.70;99.90;;;;;;4877917;29;20198;-83
2023/11/19 01:48:46;;;;;;;1.23;0.50;;;5.70;99.90;;;;;;4877843;29;20192;-82
2023/11/19 01:51:16;;;;;;;2.13;0.80;;;5.70;99.90;;;;;;4877631;29;20193;-83
2023/11/19 01:53:43;;;;;;;0.70;0.60;;;5.70;99.90;;;;;;4879432;29;20188;-82
2023/11/19 01:56:12;;;;;;;0.90;0.60;;;5.70;99.90;;;;;;4877823;29;20196;-82
2023/11/19 01:58:38;;;;;;;0.50;0.50;;;5.80;99.90;;;;;;4877150;29;20184;-83
2023/11/19 02:01:07;;;;;;;0.73;0.60;;;5.80;99.90;;;;;;4882448;29;20231;-82
2023/11/19 02:03:34;;;;;;;0.70;0.60;;;5.80;99.90;;;;;;4881147;29;20278;-82
2023/11/19 02:06:03;;;;;;;0.90;0.60;;;5.80;99.90;;;;;;4881341;29;20545;-84
2023/11/19 02:08:29;;;;;;;0.63;0.57;;;5.80;99.90;;;;;;4865832;29;20203;-84
2023/11/19 02:10:57;;;;;;;1.37;0.70;;;5.90;99.90;;;;;;4880848;29;20264;-83
2023/11/19 02:13:25;;;;;;;0.90;0.70;;;5.90;99.90;;;;;;4882015;29;20191;-83
2023/11/19 02:15:51;;;;;;;0.53;0.50;;;5.90;99.90;;;;;;4881150;29;20594;-84
2023/11/19 02:18:22;;;;;;;1.90;0.60;;;5.80;99.90;;;;;;4881930;29;20222;-83
2023/11/19 02:20:49;;;;;;;0.67;0.60;;;5.80;99.90;;;;;;4882177;29;20188;-83
2023/11/19 02:23:15;;;;;;;0.40;0.40;;;5.90;99.90;;;;;;4881990;29;20192;-83
2023/11/19 02:25:41;;;;;;;0.90;0.70;;;5.80;99.90;;;;;;4880913;29;20643;-83
2023/11/19 02:28:08;;;;;;;0.70;0.60;;;5.90;99.90;;;;;;4880797;29;20192;-83
2023/11/19 02:30:33;;;;;;;1.10;0.70;;;5.90;99.90;;;;;;4880777;29;20235;-83
2023/11/19 02:33:03;;;;;;;0.50;0.50;;;5.90;99.90;;;;;;4880633;29;20204;-83
2023/11/19 02:35:31;;;;;;;1.37;0.60;;;5.90;99.90;;;;;;4880708;29;20553;-83
2023/11/19 02:37:57;;;;;;;0.70;0.50;;;5.90;99.90;;;;;;4882065;29;20216;-83
2023/11/19 02:40:24;;;;;;;1.53;0.50;;;5.90;99.90;;;;;;4880874;29;20200;-83
2023/11/19 02:42:55;;;;;;;2.60;0.50;;;5.90;99.90;;;;;;4880444;29;20196;-83
2023/11/19 02:45:22;;;;;;;0.63;0.50;;;6.00;99.90;;;;;;4882004;29;20195;-84
2023/11/19 02:47:47;;;;;;;1.47;0.70;;;6.00;99.90;;;;;;4880742;29;20239;-83
2023/11/19 02:50:16;;;;;;;0.97;0.43;;;6.10;99.90;;;;;;4874055;29;20263;-83
2023/11/19 02:52:45;;;;;;;0.83;0.50;;;6.10;99.90;;;;;;4880532;29;20202;-84
2023/11/19 02:55:15;;;;;;;0.60;0.60;;;6.30;99.90;;;;;;4881207;29;20196;-83
2023/11/19 02:57:48;;;;;;;0.87;0.70;;;6.30;99.90;;;;;;4880196;29;20662;-83
2023/11/19 03:00:24;;;;;;;0.67;0.50;;;6.30;99.90;;;;;;4880507;29;20539;-83
2023/11/19 03:02:59;;;;;;;2.07;0.80;;;6.40;99.90;;;;;;4880355;29;20183;-83
2023/11/19 03:05:26;;;;;;;1.37;0.70;;;6.50;99.90;;;;;;4879795;29;20199;-84
2023/11/19 03:07:52;;;;;;;0.90;0.80;;;6.50;99.90;;;;;;4879847;29;20192;-83
2023/11/19 03:10:18;;;;;;;2.03;0.90;;;6.50;99.90;;;;;;4879201;29;20741;-83
2023/11/19 03:12:47;;;;;;;1.40;1.00;;;6.60;99.90;;;;;;4881024;29;20260;-84
2023/11/19 03:15:14;;;;;;;2.53;0.90;;;6.70;99.90;;;;;;4881441;29;20247;-83
2023/11/19 03:17:40;;;;;;;2.80;0.90;;;6.60;99.90;;;;;;4879911;29;20195;-84
2023/11/19 03:20:10;;;;;;;0.83;0.67;;;6.70;99.90;;;;;;4881098;29;20198;-83
2023/11/19 03:22:41;;;;;;;0.50;0.50;;;6.90;99.90;;;;;;4879980;29;20616;-83
2023/11/19 03:25:08;;;;;;;0.93;0.60;;;6.90;99.90;;;;;;4879621;29;20597;-83
2023/11/19 03:27:35;;;;;;;1.60;0.80;;;7.00;99.90;;;;;;4878361;29;20598;-83
2023/11/19 03:30:05;;;;;;;2.30;0.60;;;7.10;99.90;;;;;;4880908;29;20267;-83
2023/11/19 03:32:35;;;;;;;2.40;0.67;;;7.10;99.90;;;;;;4879641;29;20200;-82
2023/11/19 03:35:01;;;;;;;5.83;0.87;;;7.30;99.90;;;;;;4879435;29;20239;-84
2023/11/19 03:37:27;;;;;;;2.20;0.50;;;7.40;99.90;;;;;;4879324;29;20192;-82
2023/11/19 03:39:59;;;;;;;1.47;0.50;;;7.40;99.90;;;;;;4879479;29;20188;-82
2023/11/19 03:42:32;;;;;;;0.63;0.50;;;7.40;99.90;;;;;;4878949;29;20222;-83
2023/11/19 03:44:58;;;;;;;0.50;0.40;;;7.40;99.90;;;;;;4880778;29;20187;-83
2023/11/19 03:47:24;;;;;;;0.53;0.50;;;7.50;99.90;;;;;;4880370;29;20192;-82
2023/11/19 03:49:50;;;;;;;0.57;0.50;;;7.50;99.90;;;;;;4880638;29;20230;-82
2023/11/19 03:52:17;;;;;;;0.50;0.40;;;7.50;99.90;;;;;;4880342;29;20180;-85
2023/11/19 03:54:43;;;;;;;1.00;0.50;;;7.60;99.90;;;;;;4879258;29;20195;-83
2023/11/19 03:57:10;;;;;;;1.53;0.57;;;7.60;99.90;;;;;;4878018;29;20267;-83
2023/11/19 03:59:36;;;;;;;0.57;0.57;;;7.70;99.90;;;;;;4880207;29;20188;-83
2023/11/19 04:02:02;;;;;;;2.70;0.70;;;7.70;99.90;;;;;;4880397;29;20623;-83
2023/11/19 04:04:31;;;;;;;1.00;0.60;;;7.70;99.90;;;;;;4879001;29;20196;-84
2023/11/19 04:06:57;;;;;;;0.70;0.70;;;7.70;99.90;;;;;;4878948;29;20407;-83
2023/11/19 04:09:23;;;;;;;1.00;0.80;;;7.70;99.90;;;;;;4878866;29;20219;-83
2023/11/19 04:11:49;;;;;;;0.70;0.70;;;7.70;99.90;;;;;;4879485;29;20187;-84
2023/11/19 04:14:17;;;;;;;0.70;0.60;;;7.80;99.90;;;;;;4878429;29;20195;-82
2023/11/19 04:16:46;;;;;;;1.10;1.00;;;7.80;99.90;;;;;;4879017;29;20191;-84
2023/11/19 04:19:12;;;;;;;1.10;0.90;;;7.80;99.90;;;;;;4878683;29;20270;-83
2023/11/19 04:21:41;;;;;;;2.67;1.00;;;7.90;99.90;;;;;;4878574;29;20210;-83
2023/11/19 04:24:08;;;;;;;1.07;0.97;;;7.90;99.90;;;;;;4878704;29;20627;-83
2023/11/19 04:26:34;;;;;;;0.93;0.70;;;8.00;99.90;;;;;;4878895;29;20199;-82
2023/11/19 04:29:01;;;;;;;1.00;0.80;;;8.00;99.90;;;;;;4877441;29;20195;-84
2023/11/19 04:31:32;;;;;;;0.80;0.80;;;8.00;99.90;;;;;;4878224;29;20635;-83
2023/11/19 04:34:00;;;;;;;1.00;0.90;;;8.00;99.90;;;;;;4878523;29;20191;-83
2023/11/19 04:36:26;;;;;;;1.73;0.93;;;8.00;99.90;;;;;;4879631;29;20235;-84
2023/11/19 04:38:51;;;;;;;4.53;1.00;;;8.00;99.90;;;;;;4878284;29;20198;-83
2023/11/19 04:41:17;;;;;;;1.33;1.07;;;8.00;99.90;;;;;;4878621;29;20658;-83
2023/11/19 04:43:43;;;;;;;1.10;0.87;;;8.00;99.90;;;;;;4879735;29;20194;-83
2023/11/19 04:46:10;;;;;;;2.90;1.00;;;8.10;99.90;;;;;;4879690;29;20192;-83
2023/11/19 04:48:35;;;;;;;1.15;1.02;;;8.10;99.90;;;;;;4879612;29;20200;-83
2023/11/19 04:51:04;;;;;;;0.95;0.85;;;8.10;99.90;;;;;;4878269;29;20279;-82
2023/11/19 04:53:29;;;;;;;1.25;1.10;;;8.10;99.90;;;;;;4863545;29;20195;-83
2023/11/19 04:55:55;;;;;;;1.63;1.20;;;8.10;99.90;;;;;;4880017;29;20243;-83
2023/11/19 04:58:21;;;;;;;1.93;1.10;;;8.10;99.90;;;;;;4876903;29;20200;-82
2023/11/19 05:00:46;;;;;;;3.03;1.43;;;8.20;99.90;;;;;;4879617;29;20184;-81
2023/11/19 05:03:12;;;;;;;1.60;1.20;;;8.20;99.90;;;;;;4879441;29;20260;-82
2023/11/19 05:05:38;;;;;;;1.43;1.20;;;8.20;99.90;;;;;;4878151;29;20215;-82
2023/11/19 05:08:05;;;;;;;2.03;1.30;;;8.20;99.90;;;;;;4878200;29;20215;-82
2023/11/19 05:10:30;;;;;;;2.07;1.30;;;8.20;99.90;;;;;;4878198;29;20228;-82
2023/11/19 05:12:56;;;;;;;2.47;1.33;;;8.30;99.90;;;;;;4879381;29;20241;-82
2023/11/19 05:15:22;;;;;;;1.63;1.50;;;8.30;99.90;;;;;;4878139;29;20627;-83
2023/11/19 05:17:47;;;;;;;1.90;1.60;;;8.30;99.90;;;;;;4877992;29;20611;-82
2023/11/19 05:20:13;;;;;;;2.60;1.70;;;8.30;99.90;;;;;;4878250;29;20250;-86
2023/11/19 05:22:43;;;;;;;2.05;1.63;;;8.30;99.90;;;;;;4879630;29;20352;-85
2023/11/19 05:25:08;;;;;;;4.00;1.85;;;8.40;99.90;;;;;;4879630;29;20196;-86
2023/11/19 05:27:36;;;;;;;2.70;2.13;;;8.40;99.90;;;;;;4877375;29;20649;-85
2023/11/19 05:30:03;;;;;;;5.40;2.27;;;8.40;99.90;;;;;;4878455;29;20238;-85
2023/11/19 05:32:28;;;;;;;2.30;2.10;;;8.40;99.90;;;;;;4878143;29;20192;-84
2023/11/19 05:34:54;;;;;;;4.93;2.30;;;8.50;99.90;;;;;;4881076;29;20671;-81
2023/11/19 05:37:20;;;;;;;3.33;2.40;;;8.50;99.90;;;;;;4883071;29;20199;-83
2023/11/19 05:39:45;;;;;;;4.03;2.47;;;8.60;99.90;;;;;;4881926;29;20278;-83
2023/11/19 05:42:11;;;;;;;4.33;2.50;;;8.60;99.90;;;;;;4882058;29;20624;-87
2023/11/19 05:44:37;;;;;;;3.00;2.55;;;8.60;99.90;;;;;;4881785;29;20195;-85
2023/11/19 05:47:04;;;;;;;5.78;2.70;;;8.60;99.90;;;;;;4882862;29;20619;-86
2023/11/19 05:49:29;;;;;;;6.37;2.77;;;8.60;99.90;;;;;;4881712;29;20235;-84
2023/11/19 05:51:55;;;;;;;7.57;2.97;;;8.60;99.90;;;;;;4881514;29;20196;-82
2023/11/19 05:54:21;;;;;;;4.55;2.33;;;8.60;99.90;;;;;;4882653;29;20196;-84
2023/11/19 05:56:50;;;;;;;3.33;2.70;;;8.60;99.90;;;;;;4882754;29;20623;-84
2023/11/19 05:59:17;;;;;;;4.05;2.60;;;8.70;99.90;;;;;;4881096;29;20192;-83
2023/11/19 06:01:43;;;;;;;2.50;2.30;;;8.60;99.90;;;;;;4882535;29;20212;-85
2023/11/19 06:04:10;;;;;;;4.97;2.35;;;8.60;99.90;;;;;;4881356;29;20200;-81
2023/11/19 06:06:36;;;;;;;4.18;2.10;;;8.70;99.90;;;;;;4881589;29;20199;-85
2023/11/19 06:09:02;;;;;;;6.65;2.15;;;8.70;99.90;;;;;;4881314;29;20204;-86
2023/11/19 06:11:28;;;;;;;3.08;2.30;;;8.70;99.90;;;;;;4881006;29;20655;-83
2023/11/19 06:13:54;;;;;;;4.35;2.33;;;8.70;99.90;;;;;;4882377;29;20195;-87
2023/11/19 06:16:20;;;;;;;4.60;2.40;;;8.70;99.90;;;;;;4882412;29;20200;-83
2023/11/19 06:18:45;;;;;;;3.60;2.50;;;8.70;99.90;;;;;;4882371;29;20527;-82
2023/11/19 06:21:12;;;;;;;3.22;2.20;;;8.70;99.90;;;;;;4882191;29;20191;-82
2023/11/19 06:23:38;;;;;;;3.60;1.90;;;8.70;99.90;;;;;;4881212;29;20207;-85
2023/11/19 06:26:05;;;;;;;6.22;2.00;;;8.70;99.90;;;;;;4880892;29;20196;-82
2023/11/19 06:28:31;;;;;;;4.15;2.00;;;8.70;99.90;;;;;;4880447;29;20274;-82
2023/11/19 06:30:57;;;;;;;5.00;2.17;;;8.70;99.90;;;;;;4881727;29;20224;-82
2023/11/19 06:33:24;;;;;;;3.75;2.17;;;8.70;99.90;;;;;;4880696;29;20687;-82
2023/11/19 06:35:50;;;;;;;4.05;1.90;;;8.70;99.90;;;;;;4880727;29;20247;-82
2023/11/19 06:38:15;;;;;;;3.70;1.98;;;8.80;99.90;;;;;;4881933;29;20623;-82
2023/11/19 06:40:41;;;;;;;4.80;2.10;;;8.80;99.90;;;;;;4880583;29;20195;-84
2023/11/19 06:43:08;;;;;;;3.20;2.05;;;8.80;99.90;;;;;;4880054;29;20188;-83
2023/11/19 06:45:36;;;;;;;3.08;2.10;;;8.80;99.90;;;;;;4881270;29;20192;-83
2023/11/19 06:48:04;;;;;;;2.40;2.20;;;8.80;99.90;;;;;;4880352;29;20184;-82
2023/11/19 06:50:30;;;;;;;3.90;2.00;;;8.80;99.90;;;;;;4880544;29;20220;-82
2023/11/19 06:52:56;;;;;;;5.03;2.43;;;8.80;99.90;;;;;;4880759;29;20195;-82
2023/11/19 06:55:22;;;;;;;10.43;2.13;;;8.80;99.90;;;;;;4881649;29;20184;-82
2023/11/19 06:57:47;;;;;;;5.53;2.20;;;8.80;99.90;;;;;;4879325;29;20525;-82
2023/11/19 07:00:13;;;;;;;3.55;2.33;;;8.80;99.90;;;;;;4880288;29;20247;-83
2023/11/19 07:02:39;;;;;;;3.75;2.17;;;8.70;99.90;;;;;;4880571;29;20228;-83
2023/11/19 07:05:05;;;;;;;7.30;2.33;;;8.70;99.90;;;;;;4880347;29;20203;-82
2023/11/19 07:07:32;;;;;;;6.75;2.45;;;8.80;99.90;;;;;;4880337;29;20199;-83
2023/11/19 07:09:58;;;;;;;6.18;2.97;;;8.80;99.90;;;;;;4880305;29;20215;-85
2023/11/19 07:12:26;;;;;;;6.07;3.00;;;8.90;99.90;;;;;;4881598;29;20674;-85
2023/11/19 07:14:52;;;;;;;4.60;2.75;;;8.90;99.90;;;;;;4873341;29;20188;-82
2023/11/19 07:17:20;;;;;;;11.23;3.08;;;9.00;99.90;;;;;;4881195;29;20281;-82
2023/11/19 07:19:46;;;;;;;7.95;3.10;;;9.00;99.90;;;;;;4880899;29;20187;-82
2023/11/19 07:22:12;;;;;;;3.08;2.78;;;9.00;99.90;;;;;;4879850;29;20282;-82
2023/11/19 07:24:40;;;;;;;8.57;2.95;;;9.00;99.90;;;;;;4879637;29;20328;-82
2023/11/19 07:27:06;;;;;;;10.88;3.45;;;9.10;99.90;;;;;;4878144;29;20191;-82
2023/11/19 07:29:32;;;;;;;8.15;3.40;;;9.10;99.90;;;;;;4879168;29;20529;-82
2023/11/19 07:31:57;;;;;;;9.07;3.22;;;9.10;99.90;;;;;;4880436;29;20258;-82
2023/11/19 07:34:24;;;;;;;8.43;3.78;;;9.20;99.90;;;;;;4878892;29;20198;-81
2023/11/19 07:36:50;;;;;;;12.23;3.65;;;9.20;99.90;;;;;;4881264;29;20240;-82
2023/11/19 07:39:16;;;;;;;11.23;4.03;;;9.20;99.90;;;;;;4879392;29;20199;-82
2023/11/19 07:41:41;;;;;;;11.27;3.63;;;9.30;99.90;;;;;;4880812;29;20199;-86
2023/11/19 07:44:07;;;;;;;10.90;4.22;;;9.30;99.90;;;;;;4880282;29;20180;-82
2023/11/19 07:46:33;;;;;;;13.48;4.40;;;9.30;99.90;;;;;;4880633;29;20271;-81
2023/11/19 07:48:58;;;;;;;12.98;5.00;;;9.40;99.90;;;;;;4880482;29;20275;-82
2023/11/19 07:51:25;;;;;;;12.75;4.75;;;9.50;99.90;;;;;;4880614;29;20224;-81
2023/11/19 07:53:51;;;;;;;20.35;5.28;;;9.50;99.90;;;;;;4879132;29;20203;-82
2023/11/19 07:56:16;;;;;;;17.58;5.75;;;9.60;99.90;;;;;;4879615;29;20202;-82
2023/11/19 07:58:42;;;;;;;15.25;6.50;;;9.60;99.90;;;;;;4878797;29;20631;-82
2023/11/19 08:01:09;;;;;;;24.88;7.28;;;9.70;99.90;;;;;;4878929;29;20195;-81
2023/11/19 08:03:34;;;;;;;22.50;6.15;;;9.80;99.90;;;;;;4880581;29;20582;-82
2023/11/19 08:06:01;;;;;;;20.70;6.40;;;9.90;99.90;;;;;;4880278;29;20222;-82
2023/11/19 08:08:29;;;;;;;17.75;5.90;;;9.90;99.90;;;;;;4879910;29;20184;-81
2023/11/19 08:10:56;;;;;;;28.90;5.82;;;10.00;99.90;;;;;;4878829;29;20275;-84
2023/11/19 08:13:23;;;;;;;25.33;6.55;;;10.00;99.90;;;;;;4877763;29;20275;-81
2023/11/19 08:15:49;;;;;;;22.58;6.20;;;10.20;99.90;;;;;;4878933;29;20199;-82
2023/11/19 08:18:14;;;;;;;24.30;6.05;;;10.20;99.90;;;;;;4880114;29;20190;-82
2023/11/19 08:20:41;;;;;;;20.40;5.78;;;10.30;99.90;;;;;;4880076;29;20191;-82
2023/11/19 08:23:07;;;;;;;24.38;6.38;;;10.40;99.90;;;;;;4879823;29;20680;-82
2023/11/19 08:25:35;;;;;;;26.08;5.53;;;10.40;99.90;;;;;;4877276;29;20247;-82
2023/11/19 08:28:03;;;;;;;20.98;5.82;;;10.50;99.90;;;;;;4874928;29;20220;-83
2023/11/19 08:30:29;;;;;;;28.42;5.57;;;10.50;99.90;;;;;;4863680;29;20263;-81
2023/11/19 08:32:55;;;;;;;27.05;5.05;;;10.50;99.90;;;;;;4873831;29;20611;-81
2023/11/19 08:35:20;;;;;;;26.73;5.43;;;10.60;99.90;;;;;;4864499;29;20529;-81
2023/11/19 08:37:46;;;;;;;19.30;4.35;;;10.70;99.90;;;;;;4877058;29;20214;-83
2023/11/19 08:40:15;;;;;;;24.48;4.75;;;10.80;99.90;;;;;;4870150;29;20204;-82
2023/11/19 08:42:41;;;;;;;23.90;4.57;;;10.80;99.90;;;;;;4877272;29;20248;-82
2023/11/19 08:45:10;;;;;;;19.23;3.97;;;10.80;99.90;;;;;;4876944;29;20200;-82
2023/11/19 08:47:36;;;;;;;19.60;4.43;;;10.90;99.90;;;;;;4877256;29;20267;-81
2023/11/19 08:50:01;;;;;;;21.20;4.00;;;10.90;99.90;;;;;;4877805;29;20283;-81
2023/11/19 08:52:27;;;;;;;18.55;3.75;;;10.90;99.90;;;;;;4873544;29;20268;-84
2023/11/19 08:54:53;;;;;;;25.10;4.68;;;11.00;99.90;;;;;;4873475;29;20196;-80
2023/11/19 08:57:19;;;;;;;22.42;4.20;;;11.00;99.90;;;;;;4873244;29;20636;-82
2023/11/19 08:59:45;;;;;;;20.52;3.50;;;11.00;99.90;;;;;;4872057;29;20193;-83
2023/11/19 09:02:11;;;;;;;25.73;4.28;;;11.10;99.90;;;;;;4875247;29;20290;-83
2023/11/19 09:04:37;;;;;;;26.75;4.13;;;11.20;99.90;;;;;;4870946;29;20317;-83
2023/11/19 09:07:03;;;;;;;20.75;3.88;;;11.20;99.90;;;;;;4871617;29;20184;-82
2023/11/19 09:09:29;;;;;;;24.77;4.20;;;11.20;99.90;;;;;;4881748;29;20319;-83
2023/11/19 09:11:55;;;;;;;21.83;4.32;;;11.20;99.90;;;;;;4880791;29;20551;-82
2023/11/19 09:14:25;;;;;;;33.22;4.75;;;11.30;99.90;;;;;;4871403;29;20197;-82
2023/11/19 09:16:52;;;;;;;23.13;4.20;;;11.50;99.90;;;;;;4878075;29;20188;-82
2023/11/19 09:19:18;;;;;;;21.30;4.70;;;11.50;99.90;;;;;;4875688;29;20196;-81
2023/11/19 09:21:44;;;;;;;24.75;4.28;;;11.50;99.90;;;;;;4868417;29;20615;-82
2023/11/19 09:24:09;;;;;;;22.30;4.13;;;11.60;99.90;;;;;;4873299;29;20199;-82
2023/11/19 09:26:36;;;;;;;24.33;4.22;;;11.50;99.90;;;;;;4873834;29;20199;-82
2023/11/19 09:29:02;;;;;;;28.55;4.38;;;11.50;99.90;;;;;;4863734;29;20188;-82
2023/11/19 09:31:27;;;;;;;37.03;5.28;;;11.50;99.90;;;;;;4875842;29;20188;-83
2023/11/19 09:33:53;;;;;;;22.55;4.78;;;11.50;99.90;;;;;;4873978;29;20502;-82
2023/11/19 09:36:19;;;;;;;27.05;5.05;;;11.50;99.90;;;;;;4860788;29;20552;-84
2023/11/19 09:38:44;;;;;;;32.42;5.68;;;11.50;99.90;;;;;;4864357;29;20207;-82
2023/11/19 09:41:13;;;;;;;21.85;4.18;;;11.50;99.90;;;;;;4881077;29;20200;-83
2023/11/19 09:43:42;;;;;;;20.10;4.72;;;11.40;99.90;;;;;;4863573;29;20180;-82
2023/11/19 09:46:13;;;;;;;27.50;4.95;;;11.30;99.90;;;;;;4878134;29;20274;-83
2023/11/19 09:48:42;;;;;;;23.38;4.22;;;11.30;99.90;;;;;;4877242;29;20191;-83
2023/11/19 09:51:10;;;;;;;26.92;4.95;;;11.30;99.90;;;;;;4863372;29;20221;-82
2023/11/19 09:53:37;;;;;;;22.55;4.93;;;11.30;99.90;;;;;;4879192;29;20199;-82
2023/11/19 09:56:04;;;;;;;24.40;4.63;;;11.30;99.90;;;;;;4872694;29;20183;-83
2023/11/19 09:58:31;;;;;;;23.58;4.55;;;11.30;99.90;;;;;;4873102;29;20204;-81
2023/11/19 10:00:59;;;;;;;22.60;4.20;;;11.30;99.90;;;;;;4876470;29;20520;-82
2023/11/19 10:03:26;;;;;;;25.15;4.57;;;11.30;99.90;;;;;;4875107;29;20191;-82
2023/11/19 10:05:54;;;;;;;19.77;4.00;;;11.40;99.90;;;;;;4875649;29;20184;-85
2023/11/19 10:08:19;;;;;;;23.38;4.65;;;11.60;99.90;;;;;;4873440;29;20188;-80
2023/11/19 10:10:45;;;;;;;27.02;5.15;;;11.70;99.90;;;;;;4862859;29;20555;-83
2023/11/19 10:13:11;;;;;;;29.45;4.50;;;11.70;99.90;;;;;;4867841;29;20220;-83
2023/11/19 10:15:37;;;;;;;23.13;4.63;;;11.80;99.90;;;;;;4866757;29;20184;-82
2023/11/19 10:18:06;;;;;;;23.60;4.35;;;11.90;99.90;;;;;;4877930;29;20630;-82
2023/11/19 10:20:36;;;;;;;25.48;4.78;;;11.90;99.90;;;;;;4873722;29;20192;-81
2023/11/19 10:23:02;;;;;;;26.38;5.18;;;11.90;99.90;;;;;;4874443;29;20189;-82
2023/11/19 10:25:29;;;;;;;28.88;4.18;;;12.10;99.90;;;;;;4880403;29;20200;-84
2023/11/19 10:27:56;;;;;;;24.05;4.47;;;12.20;99.90;;;;;;4882014;29;20187;-83
2023/11/19 10:30:23;;;;;;;27.30;5.18;;;12.40;99.90;;;;;;4864502;29;20207;-83
2023/11/19 10:33:05;;;;;;;32.63;5.40;;;12.50;99.90;;;;;;4872051;29;20188;-81
2023/11/19 10:35:32;;;;;;;25.55;4.90;;;12.40;99.90;;;;;;4863035;29;20640;-83
2023/11/19 10:38:18;;;;;;;26.15;5.53;;;12.50;99.90;;;;;;4872941;29;20191;-82
2023/11/19 10:40:44;;;;;;;23.85;4.13;;;12.70;99.90;;;;;;4858938;29;20193;-82
2023/11/19 10:43:10;;;;;;;20.13;4.13;;;12.70;99.90;;;;;;4869867;29;20192;-82
2023/11/19 10:45:39;;;;;;;23.80;4.85;;;12.80;99.90;;;;;;4873068;29;20188;-83
2023/11/19 10:48:06;;;;;;;32.47;4.88;;;12.90;99.90;;;;;;4881662;29;20187;-83
2023/11/19 10:50:39;;;;;;;26.17;4.13;;;12.90;99.90;;;;;;4857646;29;20211;-84
2023/11/19 10:53:06;;;;;;;27.90;4.40;;;12.90;99.90;;;;;;4859922;29;20188;-81
2023/11/19 10:55:38;;;;;;;19.75;4.55;;;12.80;99.90;;;;;;4864401;29;20188;-82
2023/11/19 10:58:11;;;;;;;27.27;5.25;;;12.80;99.90;;;;;;4873654;29;20191;-82
2023/11/19 11:00:45;;;;;;;29.77;4.75;;;12.60;99.90;;;;;;4866799;29;20200;-84
2023/11/19 11:03:39;;;;;;;24.50;4.43;;;12.60;99.90;;;;;;4865988;29;20184;-81
2023/11/19 11:06:05;;;;;;;28.23;4.93;;;12.50;99.90;;;;;;4872278;29;20534;-82
2023/11/19 11:08:31;;;;;;;30.13;5.25;;;12.50;99.90;;;;;;4865372;29;20203;-82
2023/11/19 11:10:57;;;;;;;23.08;4.20;;;12.50;99.90;;;;;;4861627;29;20216;-82
2023/11/19 11:13:25;;;;;;;31.73;5.57;;;12.60;99.90;;;;;;4877791;29;20196;-83
2023/11/19 11:15:51;;;;;;;19.98;4.55;;;12.80;99.90;;;;;;4873387;29;20181;-81
2023/11/19 11:18:20;;;;;;;26.90;5.00;;;12.80;99.90;;;;;;4864408;29;20192;-83
2023/11/19 11:20:46;;;;;;;24.23;4.68;;;12.90;99.90;;;;;;4874590;29;20287;-85
2023/11/19 11:23:43;;;;;;;25.48;4.18;;;12.80;99.90;;;;;;4879162;29;20192;-82
2023/11/19 11:26:31;;;;;;;24.48;4.65;;;12.70;99.90;;;;;;4879676;29;20279;-82
2023/11/19 11:29:09;;;;;;;32.88;5.72;;;12.60;99.90;;;;;;4880368;29;20192;-84
2023/11/19 11:32:02;;;;;;;25.85;4.80;;;12.60;99.90;;;;;;4873165;29;20220;-84
2023/11/19 11:34:31;;;;;;;24.48;4.65;;;12.60;99.90;;;;;;4879886;29;20191;-84
2023/11/19 11:37:09;;;;;;;23.80;4.00;;;12.60;99.90;;;;;;4879629;29;20271;-83
2023/11/19 11:39:36;;;;;;;21.95;4.97;;;12.70;99.90;;;;;;4865263;29;20519;-85
2023/11/19 11:42:17;;;;;;;24.58;4.50;;;12.80;99.90;;;;;;4865505;29;20228;-83
2023/11/19 11:45:10;;;;;;;17.30;3.53;;;12.90;99.90;;;;;;4864663;29;20195;-88
2023/11/19 11:47:42;;;;;;;22.27;4.63;;;12.80;99.90;;;;;;4857763;29;20200;-83
2023/11/19 11:50:18;;;;;;;21.27;4.13;;;12.80;99.90;;;;;;4865124;29;20208;-83
2023/11/19 11:52:59;;;;;;;21.70;4.53;;;12.70;99.90;;;;;;4866492;29;20188;-85
2023/11/19 11:55:25;;;;;;;23.15;4.43;;;12.60;99.90;;;;;;4869570;29;20247;-82
2023/11/19 11:57:51;;;;;;;23.52;3.75;;;12.70;99.90;;;;;;4878855;29;20533;-87
2023/11/19 12:00:29;;;;;;;26.27;4.30;;;12.60;99.90;;;;;;4872592;29;20184;-84
2023/11/19 12:03:03;;;;;;;29.48;4.15;;;12.60;99.90;;;;;;4880542;29;20187;-84
2023/11/19 12:05:30;;;;;;;27.58;4.28;;;12.60;99.90;;;;;;4872789;29;20550;-79
2023/11/19 12:08:00;;;;;;;20.42;3.88;;;12.60;99.90;;;;;;4878939;29;20191;-84
2023/11/19 12:10:26;;;;;;;23.08;4.57;;;12.50;99.90;;;;;;4878779;29;20349;-83
2023/11/19 12:12:59;;;;;;;20.58;4.35;;;12.40;99.90;;;;;;4879101;29;20229;-85
2023/11/19 12:15:26;;;;;;;18.17;4.03;;;12.50;99.90;;;;;;4879026;29;20290;-86
2023/11/19 12:17:52;;;;;;;22.30;4.72;;;12.50;99.90;;;;;;4872228;29;20238;-82
2023/11/19 12:20:20;;;;;;;21.48;4.20;;;12.60;99.90;;;;;;4863166;29;20580;-82
2023/11/19 12:22:48;;;;;;;26.05;5.15;;;12.60;99.90;;;;;;4878253;29;20651;-84
2023/11/19 12:25:22;;;;;;;22.45;4.20;;;12.60;99.90;;;;;;4879942;29;20192;-88
2023/11/19 12:27:50;;;;;;;23.58;5.55;;;12.70;99.90;;;;;;4874744;29;20180;-84
2023/11/19 12:30:25;;;;;;;23.00;4.63;;;12.70;99.90;;;;;;4872376;29;20300;-82
2023/11/19 12:32:53;;;;;;;22.63;4.70;;;12.70;99.90;;;;;;4878900;29;20191;-80
2023/11/19 12:35:19;;;;;;;18.98;3.90;;;12.60;99.90;;;;;;4871487;29;20232;-82
2023/11/19 12:37:46;;;;;;;23.73;4.50;;;12.50;99.90;;;;;;4867243;29;20652;-83
2023/11/19 12:40:17;;;;;;;21.58;4.50;;;12.50;99.90;;;;;;4872166;29;20627;-80
2023/11/19 12:42:43;;;;;;;19.80;3.95;;;12.60;99.90;;;;;;4879386;29;20183;-82
2023/11/19 12:45:12;;;;;;;18.67;4.07;;;12.50;99.90;;;;;;4878459;29;20191;-81
2023/11/19 12:47:41;;;;;;;19.33;3.97;;;12.30;99.90;;;;;;4878152;29;20199;-83
2023/11/19 12:50:08;;;;;;;22.58;4.32;;;12.30;99.90;;;;;;4869940;29;20227;-81